createdAt,value
2023-05-14T00:01:41.808Z,74.01
2023-05-14T00:04:43.760Z,73.34
2023-05-14T00:07:45.670Z,73.92
2023-05-14T00:10:47.527Z,75.31
2023-05-14T00:13:50.323Z,76.00
2023-05-14T00:16:52.236Z,75.74
2023-05-14T00:19:54.111Z,74.76
2023-05-14T00:22:56.432Z,75.56
2023-05-14T00:25:58.468Z,75.52
2023-05-14T00:29:00.476Z,75.72
2023-05-14T00:32:03.780Z,76.41
2023-05-14T00:35:06.136Z,75.44
2023-05-14T00:38:08.108Z,75.47
2023-05-14T00:41:10.004Z,75.96
2023-05-14T00:44:11.931Z,76.26
2023-05-14T00:47:13.918Z,75.59
2023-05-14T00:50:16.844Z,77.33
2023-05-14T00:53:20.717Z,76.52
2023-05-14T00:56:23.281Z,77.68
2023-05-14T00:59:25.930Z,77.07
2023-05-14T01:02:27.935Z,78.23
2023-05-14T01:05:54.116Z,77.53
2023-05-14T01:09:01.976Z,79.42
2023-05-14T01:12:29.844Z,78.30
2023-05-14T01:15:34.699Z,78.10
2023-05-14T01:18:37.071Z,79.20
2023-05-14T01:21:43.693Z,78.26
2023-05-14T01:24:45.726Z,78.55
2023-05-14T01:28:18.276Z,78.36
2023-05-14T01:31:27.975Z,78.29
2023-05-14T01:34:31.394Z,78.18
2023-05-14T01:37:33.660Z,78.23
2023-05-14T01:40:36.571Z,77.44
2023-05-14T01:43:39.487Z,77.80
2023-05-14T01:46:41.447Z,77.59
2023-05-14T01:49:43.635Z,77.20
2023-05-14T01:52:45.507Z,77.25
2023-05-14T01:55:47.451Z,77.26
2023-05-14T01:58:49.965Z,76.84
2023-05-14T02:01:52.010Z,76.98
2023-05-14T02:04:54.039Z,76.45
2023-05-14T02:07:56.065Z,77.11
2023-05-14T02:10:58.019Z,76.63
2023-05-14T02:14:00.244Z,76.76
2023-05-14T02:17:02.109Z,76.18
2023-05-14T02:20:04.498Z,76.61
2023-05-14T02:23:06.554Z,76.72
2023-05-14T02:26:09.873Z,76.72
2023-05-14T02:29:11.801Z,76.75
2023-05-14T02:32:13.847Z,75.88
2023-05-14T02:35:15.755Z,76.25
2023-05-14T02:38:17.797Z,77.16
2023-05-14T02:41:20.069Z,77.06
2023-05-14T02:44:21.932Z,76.56
2023-05-14T02:47:23.829Z,76.91
2023-05-14T02:50:25.997Z,76.52
2023-05-14T02:53:28.132Z,76.35
2023-05-14T02:56:30.043Z,76.91
2023-05-14T02:59:32.018Z,77.12
2023-05-14T03:02:34.735Z,76.55
2023-05-14T03:05:37.089Z,76.92
2023-05-14T03:08:39.002Z,76.19
2023-05-14T03:11:40.962Z,76.08
2023-05-14T03:14:42.873Z,77.34
2023-05-14T03:17:44.819Z,76.86
2023-05-14T03:20:46.733Z,77.73
2023-05-14T03:23:48.779Z,77.19
2023-05-14T03:26:53.529Z,77.57
2023-05-14T03:29:55.615Z,76.89
2023-05-14T03:32:57.898Z,76.97
2023-05-14T03:35:59.856Z,77.99
2023-05-14T03:39:02.255Z,77.33
2023-05-14T03:42:04.420Z,76.49
2023-05-14T03:45:07.194Z,75.91
2023-05-14T03:48:09.640Z,75.99
2023-05-14T03:51:12.625Z,75.67
2023-05-14T03:54:14.498Z,75.13
2023-05-14T03:57:16.468Z,75.12
2023-05-14T04:00:18.612Z,75.91
2023-05-14T04:03:20.503Z,75.01
2023-05-14T04:06:22.488Z,74.63
2023-05-14T04:09:24.416Z,73.49
2023-05-14T04:12:26.815Z,72.13
2023-05-14T04:15:29.388Z,72.75
2023-05-14T04:18:34.978Z,71.41
2023-05-14T04:21:36.886Z,69.66
2023-05-14T04:24:38.797Z,70.51
2023-05-14T04:27:40.660Z,68.48
2023-05-14T04:30:42.492Z,67.42
2023-05-14T04:33:44.382Z,68.46
2023-05-14T04:36:46.693Z,67.49
2023-05-14T04:39:48.564Z,67.66
2023-05-14T04:42:50.500Z,66.10
2023-05-14T04:45:52.767Z,67.88
2023-05-14T04:48:54.686Z,68.89
2023-05-14T04:51:56.601Z,70.35
2023-05-14T04:54:58.495Z,68.92
2023-05-14T04:58:00.433Z,66.61
2023-05-14T05:01:05.062Z,68.12
2023-05-14T05:04:07.864Z,67.40
2023-05-14T05:07:09.972Z,66.88
2023-05-14T05:10:12.004Z,67.75
2023-05-14T05:13:14.291Z,67.50
2023-05-14T05:16:16.213Z,66.23
2023-05-14T05:19:18.841Z,66.22
2023-05-14T05:22:22.240Z,66.57
2023-05-14T05:25:24.202Z,65.71
2023-05-14T05:28:26.029Z,65.66
2023-05-14T05:31:27.999Z,63.96
2023-05-14T05:34:29.951Z,64.15
2023-05-14T05:37:31.962Z,64.98
2023-05-14T05:40:33.972Z,63.96
2023-05-14T05:43:35.882Z,64.33
2023-05-14T05:46:37.930Z,64.02
2023-05-14T05:49:39.877Z,62.60
2023-05-14T05:52:41.886Z,62.03
2023-05-14T05:55:43.882Z,62.16
2023-05-14T05:58:45.785Z,61.75
2023-05-14T06:01:48.209Z,59.98
2023-05-14T06:04:50.203Z,60.10
2023-05-14T06:07:53.680Z,59.65
2023-05-14T06:10:55.582Z,59.19
2023-05-14T06:13:57.689Z,57.71
2023-05-14T06:16:59.908Z,57.79
2023-05-14T06:20:01.973Z,56.92
2023-05-14T06:23:03.889Z,55.78
2023-05-14T06:26:05.920Z,55.42
2023-05-14T06:29:08.593Z,55.96
2023-05-14T06:32:10.645Z,56.91
2023-05-14T06:35:12.541Z,55.38
2023-05-14T06:38:14.407Z,55.96
2023-05-14T06:41:17.093Z,56.41
2023-05-14T06:44:19.558Z,54.91
2023-05-14T06:47:21.865Z,54.97
2023-05-14T06:50:24.073Z,55.83
2023-05-14T06:53:26.143Z,55.71
2023-05-14T06:56:28.037Z,56.23
2023-05-14T06:59:29.934Z,54.32
2023-05-14T07:02:32.320Z,54.64
2023-05-14T07:05:34.242Z,53.80
2023-05-14T07:08:36.154Z,55.19
2023-05-14T07:11:38.003Z,54.73
2023-05-14T07:14:40.269Z,55.06
2023-05-14T07:17:42.118Z,54.92
2023-05-14T07:20:44.080Z,54.25
2023-05-14T07:23:45.979Z,54.45
2023-05-14T07:26:48.034Z,54.21
2023-05-14T07:29:50.398Z,54.85
2023-05-14T07:32:52.371Z,54.03
2023-05-14T07:35:54.465Z,54.48
2023-05-14T07:38:56.485Z,54.00
2023-05-14T07:41:58.421Z,53.88
2023-05-14T07:45:00.353Z,52.91
2023-05-14T07:48:02.372Z,53.16
2023-05-14T07:51:04.648Z,52.84
2023-05-14T07:54:06.691Z,52.11
2023-05-14T07:57:08.635Z,52.26
2023-05-14T08:00:11.299Z,52.08
2023-05-14T08:03:15.810Z,52.02
2023-05-14T08:06:17.691Z,51.24
2023-05-14T08:09:19.500Z,52.07
2023-05-14T08:12:21.330Z,51.49
2023-05-14T08:15:24.547Z,52.07
2023-05-14T08:18:28.364Z,52.04
2023-05-14T08:21:30.292Z,51.92
2023-05-14T08:24:32.130Z,51.95
2023-05-14T08:27:34.060Z,51.74
2023-05-14T08:30:35.947Z,52.36
2023-05-14T08:33:37.827Z,53.07
2023-05-14T08:36:39.715Z,52.64
2023-05-14T08:39:41.556Z,51.36
2023-05-14T08:42:45.225Z,52.19
2023-05-14T08:45:49.804Z,51.96
2023-05-14T08:49:00.664Z,52.41
2023-05-14T08:52:02.814Z,52.30
2023-05-14T08:55:06.324Z,50.84
2023-05-14T08:58:08.320Z,51.05
2023-05-14T09:01:10.194Z,51.12
2023-05-14T09:04:13.264Z,52.05
2023-05-14T09:07:15.958Z,51.07
2023-05-14T09:10:18.683Z,51.15
2023-05-14T09:13:20.682Z,50.19
2023-05-14T09:16:23.972Z,50.05
2023-05-14T09:19:26.332Z,49.57
2023-05-14T09:22:31.918Z,49.95
2023-05-14T09:25:33.871Z,48.85
2023-05-14T09:28:35.728Z,50.10
2023-05-14T09:31:37.628Z,48.93
2023-05-14T09:34:40.049Z,48.37
2023-05-14T09:37:43.797Z,50.06
2023-05-14T09:40:46.620Z,48.35
2023-05-14T09:43:49.438Z,48.93
2023-05-14T09:46:53.166Z,47.32
2023-05-14T09:49:55.082Z,47.99
2023-05-14T09:52:57.006Z,48.49
2023-05-14T09:55:58.947Z,47.20
2023-05-14T09:59:01.219Z,46.48
2023-05-14T10:02:05.622Z,44.66
2023-05-14T10:05:08.380Z,46.57
2023-05-14T10:08:20.074Z,44.17
2023-05-14T10:11:27.681Z,43.95
2023-05-14T10:14:36.090Z,45.66
2023-05-14T10:17:41.041Z,46.42
2023-05-14T10:20:44.115Z,44.82
2023-05-14T10:23:46.897Z,45.09
2023-05-14T10:26:49.055Z,45.36
2023-05-14T10:29:55.141Z,44.71
2023-05-14T10:33:08.185Z,44.15
2023-05-14T10:36:10.327Z,44.25
2023-05-14T10:39:12.238Z,44.80
2023-05-14T10:42:19.804Z,45.44
2023-05-14T10:45:23.058Z,44.16
2023-05-14T10:48:26.067Z,44.68
2023-05-14T10:55:01.942Z,43.76
2023-05-14T10:58:05.992Z,43.18
2023-05-14T11:01:10.187Z,43.68
2023-05-14T11:04:24.295Z,43.67
2023-05-14T11:07:50.110Z,43.74
2023-05-14T11:10:52.390Z,43.18
2023-05-14T11:13:54.999Z,44.03
2023-05-14T11:16:57.629Z,42.50
2023-05-14T11:20:00.281Z,43.01
2023-05-14T11:23:02.219Z,43.14
2023-05-14T11:26:04.312Z,42.57
2023-05-14T11:29:06.204Z,42.28
2023-05-14T11:32:08.232Z,41.38
2023-05-14T11:35:10.327Z,42.36
2023-05-14T11:38:19.347Z,42.58
2023-05-14T11:41:21.693Z,42.09
2023-05-14T11:44:23.939Z,42.63
2023-05-14T11:47:25.872Z,42.92
2023-05-14T11:50:28.007Z,42.62
2023-05-14T11:53:31.123Z,42.84
2023-05-14T11:56:33.079Z,42.92
2023-05-14T11:59:35.052Z,42.99
2023-05-14T12:02:37.846Z,44.17
2023-05-14T12:05:40.270Z,43.57
2023-05-14T12:08:42.440Z,42.02
2023-05-14T12:11:46.445Z,40.59
2023-05-14T12:14:50.072Z,41.40
2023-05-14T12:17:52.346Z,40.44
2023-05-14T12:20:54.293Z,40.29
2023-05-14T12:24:02.059Z,39.80
2023-05-14T12:27:04.044Z,40.26
2023-05-14T12:30:20.658Z,40.54
2023-05-14T12:33:26.658Z,40.52
2023-05-14T12:36:30.829Z,41.77
2023-05-14T12:39:34.263Z,41.27
2023-05-14T12:42:36.508Z,42.08
2023-05-14T12:45:38.490Z,43.99
2023-05-14T12:48:40.308Z,45.44
2023-05-14T12:51:42.149Z,43.89
2023-05-14T12:54:44.049Z,45.47
2023-05-14T12:57:45.951Z,44.56
2023-05-14T13:00:48.055Z,45.82
2023-05-14T13:03:50.182Z,46.75
2023-05-14T13:06:52.456Z,47.57
2023-05-14T13:09:54.487Z,49.35
2023-05-14T13:12:56.613Z,51.34
2023-05-14T13:15:58.534Z,49.93
2023-05-14T13:19:00.567Z,52.17
2023-05-14T13:22:02.556Z,53.36
2023-05-14T13:25:05.019Z,53.93
2023-05-14T13:28:06.966Z,55.21
2023-05-14T13:31:11.354Z,53.26
2023-05-14T13:34:13.656Z,55.45
2023-05-14T13:37:15.641Z,53.19
2023-05-14T13:40:17.575Z,53.26
2023-05-14T13:43:19.466Z,54.94
2023-05-14T13:46:21.571Z,54.88
2023-05-14T13:49:23.510Z,53.86
2023-05-14T13:52:25.685Z,53.40
2023-05-14T13:55:27.610Z,51.83
2023-05-14T13:58:29.490Z,52.74
2023-05-14T14:01:31.805Z,52.28
2023-05-14T14:04:33.999Z,52.12
2023-05-14T14:07:35.922Z,50.58
2023-05-14T14:10:40.868Z,52.33
2023-05-14T14:13:45.040Z,53.13
2023-05-14T14:16:48.347Z,51.84
2023-05-14T14:19:50.292Z,52.20
2023-05-14T14:22:52.181Z,50.85
2023-05-14T14:25:53.991Z,52.72
2023-05-14T14:28:55.822Z,55.21
2023-05-14T14:31:57.736Z,54.94
2023-05-14T14:34:59.627Z,58.72
2023-05-14T14:38:01.762Z,60.57
2023-05-14T14:41:03.620Z,61.50
2023-05-14T14:44:06.012Z,62.86
2023-05-14T14:47:07.902Z,64.07
2023-05-14T14:50:09.774Z,64.66
2023-05-14T14:53:11.646Z,66.70
2023-05-14T14:56:13.531Z,68.96
2023-05-14T14:59:15.376Z,68.74
2023-05-14T15:02:17.403Z,69.32
2023-05-14T15:05:19.267Z,70.89
2023-05-14T15:08:26.246Z,72.69
2023-05-14T15:11:29.090Z,74.62
2023-05-14T15:14:30.921Z,74.40
2023-05-14T15:17:32.999Z,76.98
2023-05-14T15:20:34.964Z,78.14
2023-05-14T15:23:36.869Z,78.64
2023-05-14T15:26:38.882Z,79.22
2023-05-14T15:29:41.554Z,79.49
2023-05-14T15:32:44.752Z,80.00
2023-05-14T15:35:46.739Z,80.56
2023-05-14T15:38:48.685Z,81.49
2023-05-14T15:41:50.699Z,81.33
2023-05-14T15:44:52.582Z,80.91
2023-05-14T15:47:54.807Z,82.12
2023-05-14T15:50:56.882Z,80.74
2023-05-14T15:53:58.926Z,79.96
2023-05-14T15:57:01.371Z,80.50
2023-05-14T16:00:10.411Z,81.19
2023-05-14T16:03:12.850Z,80.64
2023-05-14T16:06:14.835Z,80.26
2023-05-14T16:09:16.678Z,80.88
2023-05-14T16:12:18.685Z,81.91
2023-05-14T16:15:20.864Z,81.21
2023-05-14T16:18:25.179Z,81.30
2023-05-14T16:21:27.392Z,82.58
2023-05-14T16:24:29.269Z,81.95
2023-05-14T16:27:31.669Z,82.62
2023-05-14T16:30:33.683Z,82.62
2023-05-14T16:33:35.835Z,83.16
2023-05-14T16:36:37.778Z,82.58
2023-05-14T16:39:39.813Z,83.14
2023-05-14T16:42:41.995Z,81.85
2023-05-14T16:45:43.855Z,84.35
2023-05-14T16:48:45.918Z,83.93
2023-05-14T16:51:48.022Z,83.73
2023-05-14T16:54:49.865Z,83.76
2023-05-14T16:57:51.694Z,83.26
2023-05-14T17:00:53.561Z,82.89
2023-05-14T17:03:56.171Z,83.16
2023-05-14T17:06:58.197Z,83.64
2023-05-14T17:10:00.772Z,84.55
2023-05-14T17:13:03.289Z,86.28
2023-05-14T17:16:05.650Z,87.18
2023-05-14T17:19:08.763Z,85.54
2023-05-14T17:22:10.945Z,86.59
2023-05-14T17:25:13.104Z,86.59
2023-05-14T17:28:15.156Z,86.23
2023-05-14T17:31:17.168Z,85.26
2023-05-14T17:34:19.049Z,85.42
2023-05-14T17:37:21.020Z,84.04
2023-05-14T17:40:22.931Z,84.21
2023-05-14T17:43:24.835Z,84.09
2023-05-14T17:46:27.059Z,85.52
2023-05-14T17:49:29.138Z,85.16
2023-05-14T17:52:31.057Z,85.19
2023-05-14T17:55:33.198Z,85.42
2023-05-14T17:58:36.149Z,85.25
2023-05-14T18:01:38.040Z,84.29
2023-05-14T18:04:39.835Z,85.31
2023-05-14T18:07:41.718Z,84.69
2023-05-14T18:10:43.658Z,84.52
2023-05-14T18:13:45.978Z,84.02
2023-05-14T18:16:48.377Z,83.89
2023-05-14T18:19:50.322Z,84.20
2023-05-14T18:22:52.452Z,83.50
2023-05-14T18:25:54.738Z,83.41
2023-05-14T18:28:58.157Z,84.07
2023-05-14T18:32:00.005Z,84.54
2023-05-14T18:35:02.094Z,84.19
2023-05-14T18:38:04.152Z,84.49
2023-05-14T18:41:06.111Z,84.43
2023-05-14T18:44:08.033Z,84.95
2023-05-14T18:47:10.106Z,86.06
2023-05-14T18:50:11.945Z,85.16
2023-05-14T18:53:15.032Z,86.95
2023-05-14T18:56:16.958Z,87.42
2023-05-14T18:59:20.162Z,88.92
2023-05-14T19:02:22.153Z,88.78
2023-05-14T19:05:24.393Z,88.95
2023-05-14T19:08:26.446Z,88.46
2023-05-14T19:11:28.638Z,88.90
2023-05-14T19:14:31.320Z,89.67
2023-05-14T19:17:33.494Z,90.29
2023-05-14T19:20:35.627Z,89.66
2023-05-14T19:23:37.679Z,89.87
2023-05-14T19:26:39.672Z,90.17
2023-05-14T19:29:41.891Z,90.43
2023-05-14T19:32:43.956Z,89.87
2023-05-14T19:35:46.699Z,89.82
2023-05-14T19:38:48.734Z,90.90
2023-05-14T19:41:50.573Z,90.49
2023-05-14T19:44:52.711Z,90.78
2023-05-14T19:47:54.728Z,91.18
2023-05-14T19:50:59.058Z,91.31
2023-05-14T19:54:01.202Z,91.01
2023-05-14T19:57:03.492Z,90.93
2023-05-14T20:00:08.888Z,91.61
2023-05-14T20:03:13.664Z,91.74
2023-05-14T20:06:17.404Z,91.81
2023-05-14T20:09:20.132Z,92.06
2023-05-14T20:12:22.031Z,91.92
2023-05-14T20:15:23.925Z,91.57
2023-05-14T20:18:25.980Z,92.51
2023-05-14T20:21:28.168Z,91.42
2023-05-14T20:24:30.054Z,91.12
2023-05-14T20:27:32.736Z,91.71
2023-05-14T20:30:34.685Z,91.33
2023-05-14T20:33:36.556Z,92.01
2023-05-14T20:36:38.443Z,91.80
2023-05-14T20:39:40.385Z,92.23
2023-05-14T20:42:42.383Z,92.29
2023-05-14T20:45:44.265Z,92.04
2023-05-14T20:48:47.341Z,92.46
2023-05-14T20:51:49.220Z,92.50
2023-05-14T20:54:51.080Z,92.38
2023-05-14T20:57:52.948Z,92.30
2023-05-14T21:00:54.872Z,92.36
2023-05-14T21:03:56.995Z,91.91
2023-05-14T21:06:58.996Z,92.65
2023-05-14T21:10:01.852Z,93.06
2023-05-14T21:13:03.876Z,93.13
2023-05-14T21:16:06.164Z,92.91
2023-05-14T21:19:08.254Z,92.60
2023-05-14T21:22:10.157Z,92.96
2023-05-14T21:25:12.138Z,92.21
2023-05-14T21:28:14.076Z,91.94
2023-05-14T21:31:16.140Z,92.00
2023-05-14T21:34:17.937Z,92.10
2023-05-14T21:37:21.718Z,92.48
2023-05-14T21:40:23.664Z,92.82
2023-05-14T21:43:25.972Z,92.39
2023-05-14T21:46:28.994Z,92.09
2023-05-14T21:49:31.198Z,91.67
2023-05-14T21:52:33.586Z,91.17
2023-05-14T21:55:35.826Z,91.55
2023-05-14T21:58:37.793Z,91.40
2023-05-14T22:02:04.810Z,91.64
2023-05-14T22:05:01.531Z,90.89
2023-05-14T22:08:03.417Z,90.96
2023-05-14T22:11:05.410Z,91.28
2023-05-14T22:14:07.272Z,91.48
2023-05-14T22:17:09.558Z,91.59
2023-05-14T22:20:11.590Z,90.41
2023-05-14T22:23:13.387Z,90.57
2023-05-14T22:26:16.128Z,90.66
2023-05-14T22:29:18.006Z,90.12
2023-05-14T22:32:19.823Z,90.65
2023-05-14T22:35:21.724Z,90.72
2023-05-14T22:38:23.611Z,90.58
2023-05-14T22:41:26.754Z,90.59
2023-05-14T22:44:30.059Z,90.95
2023-05-14T22:47:32.060Z,89.96
2023-05-14T22:50:34.065Z,90.09
2023-05-14T22:53:35.996Z,89.94
2023-05-14T22:56:38.289Z,90.26
2023-05-14T22:59:40.231Z,89.54
2023-05-14T23:02:42.241Z,89.53
2023-05-14T23:05:44.210Z,89.38
2023-05-14T23:08:46.257Z,89.37
2023-05-14T23:11:48.128Z,89.36
2023-05-14T23:14:50.115Z,89.33
2023-05-14T23:17:52.150Z,90.00
2023-05-14T23:20:54.101Z,88.98
2023-05-14T23:23:55.935Z,89.57
2023-05-14T23:26:57.923Z,88.87
2023-05-14T23:29:59.844Z,89.34
2023-05-14T23:33:01.816Z,88.73
2023-05-14T23:36:03.902Z,88.84
2023-05-14T23:39:05.945Z,89.23
2023-05-14T23:42:07.806Z,88.65
2023-05-14T23:45:10.214Z,89.37
2023-05-14T23:48:12.064Z,89.02
2023-05-14T23:51:13.894Z,88.75
2023-05-14T23:54:17.296Z,90.02
2023-05-14T23:57:19.339Z,88.44
